createdAt,value
2022-12-16T00:00:27.425Z,22.17
2022-12-16T00:02:56.180Z,22.63
2022-12-16T00:05:24.858Z,22.57
2022-12-16T00:07:53.454Z,21.50
2022-12-16T00:10:23.791Z,22.53
2022-12-16T00:12:53.915Z,21.93
2022-12-16T00:15:23.689Z,22.63
2022-12-16T00:17:52.292Z,22.43
2022-12-16T00:20:20.870Z,22.27
2022-12-16T00:22:49.451Z,22.33
2022-12-16T00:25:18.334Z,21.50
2022-12-16T00:27:46.955Z,20.90
2022-12-16T00:30:17.424Z,20.80
2022-12-16T00:32:45.997Z,20.60
2022-12-16T00:35:14.723Z,20.93
2022-12-16T00:37:43.565Z,20.70
2022-12-16T00:40:13.378Z,21.07
2022-12-16T00:42:42.070Z,18.60
2022-12-16T00:45:11.852Z,18.77
2022-12-16T00:47:43.917Z,17.93
2022-12-16T00:50:13.043Z,17.27
2022-12-16T00:52:41.737Z,17.83
2022-12-16T00:55:12.145Z,17.50
2022-12-16T00:57:41.150Z,17.97
2022-12-16T01:00:13.593Z,17.10
2022-12-16T01:02:44.791Z,18.57
2022-12-16T01:05:17.342Z,18.57
2022-12-16T01:07:46.284Z,19.50
2022-12-16T01:10:15.850Z,19.17
2022-12-16T01:12:44.523Z,19.50
2022-12-16T01:15:15.094Z,17.37
2022-12-16T01:17:45.702Z,18.80
2022-12-16T01:20:14.957Z,17.17
2022-12-16T01:22:43.796Z,15.60
2022-12-16T01:25:14.190Z,15.57
2022-12-16T01:27:42.950Z,14.90
2022-12-16T01:30:13.416Z,13.83
2022-12-16T01:32:42.224Z,14.07
2022-12-16T01:35:43.925Z,14.17
2022-12-16T01:38:02.045Z,12.87
2022-12-16T01:40:31.976Z,15.20
2022-12-16T01:43:00.602Z,15.67
2022-12-16T01:45:35.937Z,16.17
2022-12-16T01:48:20.674Z,16.37
2022-12-16T01:50:54.011Z,16.83
2022-12-16T01:53:23.627Z,17.30
2022-12-16T01:55:56.773Z,17.43
2022-12-16T01:58:31.226Z,18.80
2022-12-16T02:01:00.936Z,20.00
2022-12-16T02:03:36.752Z,18.70
2022-12-16T02:06:08.967Z,19.83
2022-12-16T02:08:37.747Z,21.00
2022-12-16T02:11:43.702Z,20.00
2022-12-16T02:15:18.556Z,21.93
2022-12-16T02:17:59.531Z,22.23
2022-12-16T02:21:21.562Z,23.90
2022-12-16T02:24:36.830Z,23.83
2022-12-16T02:27:50.919Z,24.07
2022-12-16T02:31:01.933Z,24.90
2022-12-16T02:33:48.206Z,26.10
2022-12-16T02:36:43.351Z,25.90
2022-12-16T02:39:21.052Z,26.13
2022-12-16T02:41:58.146Z,27.17
2022-12-16T02:44:46.183Z,25.77
2022-12-16T02:47:16.294Z,25.47
2022-12-16T02:49:51.792Z,26.43
2022-12-16T02:52:24.567Z,26.37
2022-12-16T02:54:59.035Z,24.47
2022-12-16T02:58:05.027Z,23.57
2022-12-16T03:00:49.259Z,22.33
2022-12-16T03:03:27.842Z,20.13
2022-12-16T03:05:59.155Z,22.03
2022-12-16T03:08:35.233Z,19.30
2022-12-16T03:11:08.681Z,18.17
2022-12-16T03:13:43.282Z,16.73
2022-12-16T03:16:18.619Z,15.53
2022-12-16T03:18:55.660Z,13.87
2022-12-16T03:21:30.329Z,13.37
2022-12-16T03:24:04.065Z,12.53
2022-12-16T03:26:39.169Z,12.50
2022-12-16T03:29:15.916Z,11.60
2022-12-16T03:31:50.944Z,11.73
2022-12-16T03:34:33.986Z,11.43
2022-12-16T03:37:08.906Z,10.50
2022-12-16T03:39:45.029Z,10.93
2022-12-16T03:42:17.309Z,11.63
2022-12-16T03:44:47.787Z,10.50
2022-12-16T03:47:23.089Z,9.97
2022-12-16T03:49:53.953Z,10.27
2022-12-16T03:52:22.599Z,9.70
2022-12-16T03:54:51.186Z,9.30
2022-12-16T03:57:20.176Z,9.33
2022-12-16T03:59:48.788Z,9.20
2022-12-16T04:02:17.547Z,8.33
2022-12-16T04:04:46.455Z,8.83
2022-12-16T04:07:22.337Z,8.47
2022-12-16T04:09:53.100Z,8.60
2022-12-16T04:12:40.083Z,8.17
2022-12-16T04:15:32.745Z,7.53
2022-12-16T04:18:19.446Z,7.73
2022-12-16T04:21:11.991Z,7.83
2022-12-16T04:24:05.910Z,7.50
2022-12-16T04:26:55.960Z,7.00
2022-12-16T04:29:25.111Z,7.07
2022-12-16T04:31:54.430Z,7.00
2022-12-16T04:34:25.915Z,7.50
2022-12-16T04:37:12.496Z,6.90
2022-12-16T04:39:59.950Z,7.73
2022-12-16T04:42:46.456Z,7.63
2022-12-16T04:45:33.046Z,7.33
2022-12-16T04:48:19.120Z,7.93
2022-12-16T04:51:05.899Z,9.20
2022-12-16T04:53:51.937Z,11.40
2022-12-16T04:56:39.466Z,19.57
2022-12-16T04:59:25.460Z,44.60
2022-12-16T05:02:11.708Z,65.80
2022-12-16T05:04:57.793Z,17.10
2022-12-16T05:07:44.450Z,13.03
2022-12-16T05:10:30.265Z,25.43
2022-12-16T05:13:17.577Z,12.30
2022-12-16T05:16:03.687Z,12.60
2022-12-16T05:18:49.534Z,12.27
2022-12-16T05:21:35.571Z,12.90
2022-12-16T05:24:21.511Z,13.03
2022-12-16T05:27:12.978Z,14.07
2022-12-16T05:30:00.117Z,15.07
2022-12-16T05:32:54.664Z,15.63
2022-12-16T05:35:41.678Z,15.37
2022-12-16T05:38:27.562Z,16.13
2022-12-16T05:41:19.054Z,18.67
2022-12-16T05:44:05.296Z,28.63
2022-12-16T05:46:52.734Z,16.00
2022-12-16T05:49:39.036Z,15.93
2022-12-16T05:52:25.293Z,27.73
2022-12-16T05:55:11.266Z,17.33
2022-12-16T05:57:57.904Z,15.77
2022-12-16T06:00:44.006Z,17.47
2022-12-16T06:03:34.186Z,18.43
2022-12-16T06:06:20.236Z,18.50
2022-12-16T06:09:20.677Z,17.10
2022-12-16T06:12:06.609Z,18.03
2022-12-16T06:14:52.493Z,17.60
2022-12-16T06:17:40.434Z,19.70
2022-12-16T06:20:29.274Z,19.30
2022-12-16T06:23:15.303Z,18.50
2022-12-16T06:26:02.015Z,18.47
2022-12-16T06:28:47.851Z,19.97
2022-12-16T06:31:34.300Z,17.50
2022-12-16T06:34:20.910Z,18.73
2022-12-16T06:37:08.501Z,16.80
2022-12-16T06:39:54.574Z,17.73
2022-12-16T06:42:40.527Z,17.37
2022-12-16T06:45:32.884Z,17.17
2022-12-16T06:48:20.321Z,15.83
2022-12-16T06:51:06.337Z,16.93
2022-12-16T06:53:53.336Z,17.80
2022-12-16T06:56:39.401Z,17.27
2022-12-16T06:59:25.239Z,18.50
2022-12-16T07:02:11.251Z,16.37
2022-12-16T07:04:57.287Z,15.73
2022-12-16T07:07:43.582Z,14.17
2022-12-16T07:10:31.145Z,14.70
2022-12-16T07:13:23.792Z,14.43
2022-12-16T07:16:09.865Z,14.93
2022-12-16T07:18:55.686Z,14.67
2022-12-16T07:21:41.730Z,14.40
2022-12-16T07:24:27.886Z,14.20
2022-12-16T07:27:15.449Z,14.23
2022-12-16T07:30:01.558Z,14.63
2022-12-16T07:32:47.632Z,11.87
2022-12-16T07:35:33.937Z,14.13
2022-12-16T07:38:19.713Z,15.13
2022-12-16T07:41:07.610Z,17.43
2022-12-16T07:43:55.009Z,14.70
2022-12-16T07:46:40.784Z,13.03
2022-12-16T07:49:26.690Z,12.83
2022-12-16T07:52:12.907Z,11.63
2022-12-16T07:54:58.970Z,11.00
2022-12-16T07:57:44.880Z,11.67
2022-12-16T08:00:33.117Z,11.67
2022-12-16T08:03:19.016Z,9.50
2022-12-16T08:06:05.082Z,8.70
2022-12-16T08:08:51.245Z,8.00
2022-12-16T08:11:36.942Z,6.57
2022-12-16T08:14:22.958Z,6.70
2022-12-16T08:17:19.057Z,5.80
2022-12-16T08:20:05.190Z,6.20
2022-12-16T08:22:47.697Z,5.80
2022-12-16T08:25:33.811Z,5.87
2022-12-16T08:28:19.848Z,6.93
2022-12-16T08:31:09.386Z,7.53
2022-12-16T08:33:57.059Z,8.17
2022-12-16T08:36:43.421Z,8.07
2022-12-16T08:39:29.488Z,9.27
2022-12-16T08:42:15.475Z,9.40
2022-12-16T08:45:00.766Z,8.70
2022-12-16T08:47:46.899Z,8.83
2022-12-16T08:50:34.797Z,8.40
2022-12-16T08:53:20.886Z,10.00
2022-12-16T08:56:06.704Z,8.10
2022-12-16T08:58:52.004Z,7.93
2022-12-16T09:01:38.528Z,7.50
2022-12-16T09:04:24.713Z,7.57
2022-12-16T09:07:12.100Z,6.07
2022-12-16T09:09:58.325Z,5.37
2022-12-16T09:12:44.372Z,5.23
2022-12-16T09:15:30.510Z,4.97
2022-12-16T09:18:16.405Z,4.97
2022-12-16T09:21:02.754Z,4.50
2022-12-16T09:23:50.281Z,4.87
2022-12-16T09:26:36.976Z,4.50
2022-12-16T09:29:23.218Z,3.43
2022-12-16T09:32:09.528Z,3.33
2022-12-16T09:34:55.934Z,3.73
2022-12-16T09:37:42.071Z,3.17
2022-12-16T09:40:35.274Z,3.40
2022-12-16T09:43:46.060Z,3.20
2022-12-16T09:46:43.697Z,4.43
2022-12-16T09:49:44.291Z,4.27
2022-12-16T09:52:37.463Z,4.57
2022-12-16T09:55:34.892Z,4.80
2022-12-16T09:58:22.924Z,5.23
2022-12-16T10:01:09.439Z,5.70
2022-12-16T10:03:58.550Z,5.87
2022-12-16T10:06:59.402Z,7.60
2022-12-16T10:09:53.614Z,6.83
2022-12-16T10:12:56.886Z,7.23
2022-12-16T10:15:58.283Z,9.63
2022-12-16T10:19:04.744Z,7.70
2022-12-16T10:21:58.871Z,7.50
2022-12-16T10:25:01.166Z,7.00
2022-12-16T10:28:00.327Z,6.90
2022-12-16T10:30:48.470Z,6.60
2022-12-16T10:33:37.667Z,6.87
2022-12-16T10:36:32.203Z,6.77
2022-12-16T10:39:25.815Z,7.00
2022-12-16T10:42:14.422Z,7.17
2022-12-16T10:45:12.160Z,8.00
2022-12-16T10:47:59.748Z,7.53
2022-12-16T10:50:42.474Z,6.90
2022-12-16T10:53:34.624Z,7.47
2022-12-16T10:56:43.931Z,9.43
2022-12-16T10:59:30.259Z,9.80
2022-12-16T11:02:18.944Z,10.47
2022-12-16T11:05:07.808Z,11.07
2022-12-16T11:08:08.990Z,22.87
2022-12-16T11:10:58.233Z,16.83
2022-12-16T11:13:47.225Z,13.90
2022-12-16T11:16:38.352Z,13.40
2022-12-16T11:19:38.627Z,13.83
2022-12-16T11:22:34.578Z,13.87
2022-12-16T11:25:33.304Z,13.93
2022-12-16T11:28:24.872Z,12.97
2022-12-16T11:31:17.140Z,12.80
2022-12-16T11:34:10.091Z,13.70
2022-12-16T11:37:00.026Z,13.37
2022-12-16T11:39:51.531Z,15.73
2022-12-16T11:42:42.718Z,14.23
2022-12-16T11:45:35.119Z,13.17
2022-12-16T11:48:35.136Z,12.00
2022-12-16T11:51:23.989Z,13.63
2022-12-16T11:54:18.028Z,13.73
2022-12-16T11:57:06.651Z,13.53
2022-12-16T11:59:59.522Z,14.97
2022-12-16T12:02:55.849Z,14.93
2022-12-16T12:05:52.592Z,16.97
2022-12-16T12:08:51.503Z,17.40
2022-12-16T12:11:47.558Z,17.67
2022-12-16T12:14:59.515Z,18.53
2022-12-16T12:17:59.675Z,17.57
2022-12-16T12:21:04.766Z,17.73
2022-12-16T12:24:04.815Z,18.90
2022-12-16T12:26:53.791Z,20.27
2022-12-16T12:29:57.005Z,19.47
2022-12-16T12:33:00.071Z,22.23
2022-12-16T12:36:25.396Z,21.17
2022-12-16T12:39:26.400Z,25.20
2022-12-16T12:42:30.281Z,24.37
2022-12-16T12:45:42.315Z,25.03
2022-12-16T12:48:40.496Z,25.97
2022-12-16T12:51:36.962Z,29.87
2022-12-16T12:54:34.974Z,29.90
2022-12-16T12:57:23.331Z,29.60
2022-12-16T13:00:17.806Z,31.63
2022-12-16T13:03:17.740Z,33.57
2022-12-16T13:06:04.629Z,33.57
2022-12-16T13:09:11.970Z,35.23
2022-12-16T13:12:33.847Z,36.97
2022-12-16T13:15:23.859Z,35.83
2022-12-16T13:18:43.175Z,36.70
2022-12-16T13:22:04.235Z,38.20
2022-12-16T13:25:04.118Z,39.27
2022-12-16T13:28:10.292Z,39.33
2022-12-16T13:31:05.122Z,40.57
2022-12-16T13:33:53.858Z,43.97
2022-12-16T13:36:53.462Z,46.13
2022-12-16T13:39:51.517Z,46.73
2022-12-16T13:43:12.474Z,44.67
2022-12-16T13:46:02.371Z,46.53
2022-12-16T13:48:59.351Z,47.83
2022-12-16T13:52:20.610Z,52.53
2022-12-16T13:55:25.116Z,49.93
2022-12-16T13:58:22.174Z,47.97
2022-12-16T14:01:23.773Z,51.43
2022-12-16T14:04:12.608Z,51.20
2022-12-16T14:06:59.654Z,48.93
2022-12-16T14:09:55.967Z,48.00
2022-12-16T14:13:06.235Z,51.27
2022-12-16T14:16:07.423Z,50.60
2022-12-16T14:19:05.888Z,53.47
2022-12-16T14:22:03.373Z,51.67
2022-12-16T14:24:49.789Z,51.93
2022-12-16T14:27:39.851Z,55.03
2022-12-16T14:30:40.733Z,51.47
2022-12-16T14:33:42.337Z,51.27
2022-12-16T14:36:41.105Z,50.60
2022-12-16T14:39:40.306Z,51.67
2022-12-16T14:42:37.797Z,49.80
2022-12-16T14:45:38.947Z,48.43
2022-12-16T14:48:47.467Z,52.57
2022-12-16T14:51:44.550Z,47.90
2022-12-16T14:54:44.857Z,48.57
2022-12-16T14:57:36.017Z,49.00
2022-12-16T15:00:34.675Z,50.10
2022-12-16T15:03:32.779Z,50.83
2022-12-16T15:06:23.609Z,50.67
2022-12-16T15:09:14.085Z,49.10
2022-12-16T15:12:03.279Z,48.30
2022-12-16T15:14:54.591Z,45.27
2022-12-16T15:17:42.940Z,43.80
2022-12-16T15:20:39.278Z,43.53
2022-12-16T15:23:37.823Z,45.87
2022-12-16T15:26:24.893Z,48.77
2022-12-16T15:29:12.954Z,46.53
2022-12-16T15:32:03.173Z,46.33
2022-12-16T15:34:57.128Z,46.43
2022-12-16T15:37:49.571Z,46.00
2022-12-16T15:40:45.118Z,46.03
2022-12-16T15:43:45.566Z,44.97
2022-12-16T15:46:41.874Z,43.57
2022-12-16T15:49:40.319Z,45.40
2022-12-16T15:52:49.220Z,45.07
2022-12-16T15:55:49.371Z,45.10
2022-12-16T15:58:43.899Z,43.77
2022-12-16T16:01:34.082Z,46.77
2022-12-16T16:04:22.201Z,45.83
2022-12-16T16:07:10.810Z,46.00
2022-12-16T16:09:58.241Z,46.70
2022-12-16T16:12:44.829Z,44.30
2022-12-16T16:15:32.777Z,44.00
2022-12-16T16:18:22.655Z,41.67
2022-12-16T16:21:10.643Z,43.10
2022-12-16T16:23:57.142Z,43.33
2022-12-16T16:26:46.571Z,45.50
2022-12-16T16:29:32.862Z,44.33
2022-12-16T16:32:20.358Z,43.93
2022-12-16T16:35:09.333Z,45.37
2022-12-16T16:38:08.872Z,48.37
2022-12-16T16:40:57.429Z,46.50
2022-12-16T16:43:44.482Z,52.27
2022-12-16T16:46:55.105Z,47.37
2022-12-16T16:49:48.087Z,47.73
2022-12-16T16:52:37.624Z,53.97
2022-12-16T16:55:33.395Z,48.37
2022-12-16T16:58:19.809Z,48.20
2022-12-16T17:01:14.493Z,45.70
2022-12-16T17:04:01.400Z,44.47
2022-12-16T17:06:58.990Z,45.17
2022-12-16T17:09:45.024Z,42.23
2022-12-16T17:12:39.022Z,42.93
2022-12-16T17:15:39.683Z,44.73
2022-12-16T17:18:26.646Z,42.10
2022-12-16T17:21:13.157Z,42.57
2022-12-16T17:23:59.701Z,41.63
2022-12-16T17:26:46.269Z,42.17
2022-12-16T17:29:39.667Z,39.67
2022-12-16T17:32:26.645Z,41.83
2022-12-16T17:35:12.989Z,41.67
2022-12-16T17:37:59.495Z,42.70
2022-12-16T17:40:46.329Z,41.23
2022-12-16T17:43:33.086Z,42.00
2022-12-16T17:46:24.276Z,42.93
2022-12-16T17:49:11.232Z,43.70
2022-12-16T17:51:58.084Z,49.07
2022-12-16T17:54:44.603Z,44.03
2022-12-16T17:57:30.619Z,44.67
2022-12-16T18:00:17.053Z,43.33
2022-12-16T18:03:04.622Z,44.97
2022-12-16T18:05:51.100Z,44.87
2022-12-16T18:08:37.290Z,39.73
2022-12-16T18:11:23.533Z,41.60
2022-12-16T18:14:09.609Z,38.67
2022-12-16T18:16:55.706Z,38.03
2022-12-16T18:19:43.705Z,40.53
2022-12-16T18:22:29.871Z,37.37
2022-12-16T18:25:15.909Z,37.37
2022-12-16T18:28:01.997Z,34.90
2022-12-16T18:30:48.167Z,33.33
2022-12-16T18:33:34.443Z,34.23
2022-12-16T18:36:22.692Z,32.03
2022-12-16T18:39:08.884Z,34.10
2022-12-16T18:42:01.690Z,33.20
2022-12-16T18:44:48.139Z,32.37
2022-12-16T18:47:34.489Z,31.70
2022-12-16T18:50:27.212Z,35.97
2022-12-16T18:53:16.316Z,34.40
2022-12-16T18:56:02.308Z,31.87
2022-12-16T18:58:52.124Z,32.37
2022-12-16T19:01:38.655Z,30.83
2022-12-16T19:04:25.302Z,29.43
2022-12-16T19:07:11.702Z,30.23
2022-12-16T19:09:58.816Z,30.80
2022-12-16T19:12:44.834Z,30.80
2022-12-16T19:15:30.833Z,29.57
2022-12-16T19:18:16.788Z,31.33
2022-12-16T19:21:02.577Z,30.40
2022-12-16T19:23:45.058Z,30.83
2022-12-16T19:26:32.667Z,31.27
2022-12-16T19:29:19.024Z,29.40
2022-12-16T19:32:05.694Z,32.60
2022-12-16T19:34:52.134Z,33.23
2022-12-16T19:37:38.442Z,30.70
2022-12-16T19:40:30.595Z,31.83
2022-12-16T19:43:20.510Z,29.80
2022-12-16T19:46:16.472Z,33.50
2022-12-16T19:49:05.483Z,30.73
2022-12-16T19:51:56.245Z,33.60
2022-12-16T19:54:59.865Z,31.33
2022-12-16T19:57:47.578Z,30.90
2022-12-16T20:00:39.829Z,30.13
2022-12-16T20:03:47.990Z,30.57
2022-12-16T20:06:43.447Z,30.27
2022-12-16T20:09:29.571Z,31.43
2022-12-16T20:12:21.781Z,30.13
2022-12-16T20:15:16.559Z,29.53
2022-12-16T20:18:07.859Z,29.17
2022-12-16T20:20:56.995Z,28.07
2022-12-16T20:23:48.118Z,29.37
2022-12-16T20:26:35.910Z,30.63
2022-12-16T20:29:26.737Z,29.70
2022-12-16T20:32:17.321Z,32.37
2022-12-16T20:35:33.957Z,32.13
2022-12-16T20:38:20.440Z,32.83
2022-12-16T20:41:15.512Z,32.70
2022-12-16T20:44:01.891Z,36.07
2022-12-16T20:46:48.466Z,31.60
2022-12-16T20:49:36.330Z,34.93
2022-12-16T20:52:44.095Z,32.80
2022-12-16T20:55:32.663Z,32.57
2022-12-16T20:58:25.058Z,36.03
2022-12-16T21:01:18.391Z,33.27
2022-12-16T21:04:04.519Z,35.50
2022-12-16T21:06:50.501Z,34.47
2022-12-16T21:09:39.407Z,37.17
2022-12-16T21:12:25.790Z,45.63
2022-12-16T21:15:11.863Z,35.07
2022-12-16T21:17:58.154Z,36.10
2022-12-16T21:20:44.120Z,35.60
2022-12-16T21:23:31.578Z,37.50
2022-12-16T21:26:19.590Z,33.30
2022-12-16T21:29:06.131Z,34.90
2022-12-16T21:31:52.131Z,33.90
2022-12-16T21:34:39.678Z,35.37
2022-12-16T21:37:25.719Z,33.77
2022-12-16T21:40:23.172Z,34.00
2022-12-16T21:43:10.797Z,34.60
2022-12-16T21:45:57.223Z,36.00
2022-12-16T21:48:43.627Z,33.43
2022-12-16T21:51:30.157Z,33.27
2022-12-16T21:54:18.891Z,36.20
2022-12-16T21:57:04.985Z,36.77
2022-12-16T21:59:56.278Z,35.73
2022-12-16T22:02:42.565Z,36.00
2022-12-16T22:05:28.944Z,32.77
2022-12-16T22:08:15.300Z,37.30
2022-12-16T22:11:01.527Z,37.40
2022-12-16T22:13:50.025Z,33.50
2022-12-16T22:16:37.333Z,37.43
2022-12-16T22:19:23.977Z,32.90
2022-12-16T22:22:21.743Z,32.37
2022-12-16T22:25:14.255Z,33.97
2022-12-16T22:28:01.029Z,34.13
2022-12-16T22:30:47.568Z,33.00
2022-12-16T22:33:34.933Z,32.53
2022-12-16T22:36:22.526Z,32.93
2022-12-16T22:39:09.089Z,33.40
2022-12-16T22:41:56.024Z,34.37
2022-12-16T22:44:42.753Z,33.50
2022-12-16T22:47:29.013Z,32.67
2022-12-16T22:50:16.438Z,34.43
2022-12-16T22:53:02.489Z,33.80
2022-12-16T22:55:48.521Z,32.47
2022-12-16T22:58:34.900Z,31.43
2022-12-16T23:01:24.545Z,31.60
2022-12-16T23:04:10.610Z,32.03
2022-12-16T23:06:58.537Z,32.70
2022-12-16T23:09:44.912Z,31.87
2022-12-16T23:12:31.341Z,31.83
2022-12-16T23:15:17.579Z,30.63
2022-12-16T23:18:04.218Z,33.80
2022-12-16T23:20:51.880Z,32.00
2022-12-16T23:23:45.451Z,33.57
2022-12-16T23:26:31.455Z,32.63
2022-12-16T23:29:18.051Z,31.20
2022-12-16T23:32:04.451Z,32.43
2022-12-16T23:34:50.444Z,30.97
2022-12-16T23:37:37.146Z,31.83
2022-12-16T23:40:25.855Z,30.77
2022-12-16T23:43:13.253Z,29.90
2022-12-16T23:46:01.596Z,29.77
2022-12-16T23:48:47.721Z,29.60
2022-12-16T23:51:33.895Z,30.47
2022-12-16T23:54:22.209Z,29.47
2022-12-16T23:57:09.620Z,28.13
2022-12-16T23:59:56.501Z,29.40
